Tropical Cyclones
[Index]
Main Index Home Page Stock Weather Photos Extreme Storms Discussion Storm News and Storm Chasing Reports Tropical Cyclones / Hurricanes / Typhoons Weather Data and Links Wild Fires / Bushfires Weather Observation Techniques Weather Picture Catalogue Tornado Pictures and Reports Stock Video Footage and DVDs for sale
Season 2007-2008 Tropical Cyclone GENE Track Map
Season 2007-2008 Summaries: [BoM-AU] [JTWC-AU] [JTWC-SIO] [JTWC-SPAC] [JTWC-SH]
<<- Previous TC | JTWC 2007-2008 Season | Next TC ->>

click for intensity scale information  Lat/long Grid: Show Hide

 Date Labels: Show Hide

Joint Typhoon Warning Centre Cyclone Data

Name: GENE

26 Jan 2008 00:00 UTC to 06 Feb 2008 18:00 UTC

    date/time    lat    long     hPa   cat  kts
2008-01-26 00   12.1   178.1    1007         20          
2008-01-26 06   12.4   179.1    1007         20          
2008-01-26 12   12.8   179.9W   1007         20          
2008-01-26 18   13.3   179.2W   1001         30          
2008-01-27 00   13.8   178.9W   1001         30          
2008-01-27 06   14.5   179.0W   1000         30          
2008-01-27 12   15.2   179.3W   1000         30          
2008-01-27 18   16.0   179.8W    996         35          
2008-01-28 00   16.8   179.2     993    1    40          
2008-01-28 06   17.3   178.1     989    1    45          
2008-01-28 12   17.6   176.9     989    1    45          
2008-01-28 18   17.9   176.2     989    1    45          
2008-01-29 00   18.2   175.5     989    1    45          
2008-01-29 06   18.5   175.0     989    1    45          
2008-01-29 12   18.6   174.5     985    1    50          
2008-01-29 18   18.6   174.0     982    2    55          
2008-01-30 00   18.6   173.5     978    2    60          
2008-01-30 00   18.6   173.5     978    2    60          
2008-01-30 06   18.6   173.0     974    2    65          
2008-01-30 06   18.6   173.0     974    2    65          
2008-01-30 12   18.7   172.5     967    3    75          
2008-01-30 12   18.7   172.5     967    3    75          
2008-01-30 12   18.7   172.5     967    3    75          
2008-01-30 18   18.9   171.9     959    3    85          
2008-01-30 18   18.9   171.9     959    3    85          
2008-01-30 18   18.9   171.9     959    3    85          
2008-01-31 00   19.1   171.4     956    3    90          
2008-01-31 00   19.1   171.4     956    3    90          
2008-01-31 00   19.1   171.4     956    3    90          
2008-01-31 06   19.3   171.1     956    3    90          
2008-01-31 06   19.3   171.1     956    3    90          
2008-01-31 06   19.3   171.1     956    3    90          
2008-01-31 12   19.5   170.9     952    3    95          
2008-01-31 12   19.5   170.9     952    3    95          
2008-01-31 12   19.5   170.9     952    3    95          
2008-01-31 18   19.6   170.7     948    4   100          
2008-01-31 18   19.6   170.7     948    4   100          
2008-01-31 18   19.6   170.7     948    4   100          
2008-02-01 00   19.8   170.7     948    4   100          
2008-02-01 00   19.8   170.7     948    4   100          
2008-02-01 00   19.8   170.7     948    4   100          
2008-02-01 06   20.2   170.7     956    3    90          
2008-02-01 06   20.2   170.7     956    3    90          
2008-02-01 06   20.2   170.7     956    3    90          
2008-02-01 12   20.6   170.7     956    3    90          
2008-02-01 12   20.6   170.7     956    3    90          
2008-02-01 12   20.6   170.7     956    3    90          
2008-02-01 18   21.0   170.8     956    3    80          
2008-02-01 18   21.0   170.8     956    3    80          
2008-02-01 18   21.0   170.8     956    3    80          
2008-02-02 00   21.4   171.0     967    3    75          
2008-02-02 00   21.4   171.0     967    3    75          
2008-02-02 00   21.4   171.0     967    3    75          
2008-02-02 06   21.8   171.1     970    2    70          
2008-02-02 06   21.8   171.1     970    2    70          
2008-02-02 06   21.8   171.1     970    2    70          
2008-02-02 12   22.2   171.3     974    2    65          
2008-02-02 12   22.2   171.3     974    2    65          
2008-02-02 18   22.6   171.4     974    2    65          
2008-02-02 18   22.6   171.4     974    2    65          
2008-02-03 00   23.0   171.5     978    2    60          
2008-02-03 00   23.0   171.5     978    2    60          
2008-02-03 06   23.6   171.7     982    2    55          
2008-02-03 06   23.6   171.7     982    2    55          
2008-02-03 12   24.4   172.0     982    2    55          
2008-02-03 12   24.4   172.0     982    2    55          
2008-02-03 18   25.4   172.4     982    2    55          
2008-02-03 18   25.4   172.4     982    2    55          
2008-02-04 00   26.4   172.8     982    2    55          
2008-02-04 00   26.4   172.8     982    2    55          
2008-02-04 06   27.1   173.3     982    2    55          
2008-02-04 06   27.1   173.3     982    2    55          
2008-02-04 12   27.7   173.9     985    1    50          
2008-02-04 12   27.7   173.9     985    1    50          
2008-02-04 18   28.3   174.7     989    1    45          
2008-02-05 00   28.5   175.6     989    1    45          
2008-02-05 06   28.6   176.7     989    1    45          
2008-02-05 12   28.6   178.3     989    1    45          
2008-02-05 18   28.6   179.9W    993    1    40          
2008-02-06 00   28.9   177.9W    993    1    40          
2008-02-06 06   29.8   175.6W    993    1    40          
2008-02-06 12   30.8   173.1W   1000         30          
2008-02-06 18   32.5   170.6W   1000         30          
Winds are 1-min average.

Tropical cyclone tracks developed by Michael Bath using data from the Joint Typhoon Warning Centre Best Tracks and Google Maps.


[Australian Severe Weather index] [Copyright Notice] [Email Contacts] [Search This Site] [Privacy Policy]
Document: tropical_cyclone_gene.htm Updated: 28 June 2017